Time;durP1;ratioP1;P1;durP2;ratioP2;P2;SDS_P1;SDS_P2;PMS_P1;PMS_P2;Temp;Humidity;BMP_temperature;BMP_pressure;BME280_temperature;BME280_humidity;BME280_pressure;Samples;Min_cycle;Max_cycle;Signal;HPM_P1;HPM_P2
2024/01/17 00:01:16;;;;;;;17.50;9.18;;;;;;;;;;6300135;22;19994;-82
2024/01/17 00:04:01;;;;;;;18.08;8.90;;;;;;;;;;6297834;22;20002;-82
2024/01/17 00:06:47;;;;;;;17.23;7.60;;;;;;;;;;6300596;22;20002;-82
2024/01/17 00:09:32;;;;;;;19.45;8.30;;;;;;;;;;6303829;22;19999;-80
2024/01/17 00:12:17;;;;;;;14.20;6.93;;;;;;;;;;6298961;22;20064;-82
2024/01/17 00:15:03;;;;;;;15.35;7.63;;;;;;;;;;6303633;22;20082;-81
2024/01/17 00:17:48;;;;;;;24.63;9.45;;;;;;;;;;6303534;22;20086;-81
2024/01/17 00:20:33;;;;;;;18.80;9.05;;;;;;;;;;6301148;22;19995;-81
2024/01/17 00:23:19;;;;;;;17.50;8.25;;;;;;;;;;6304135;22;19998;-81
2024/01/17 00:26:04;;;;;;;16.55;8.07;;;;;;;;;;6303083;22;19995;-80
2024/01/17 00:28:50;;;;;;;19.70;9.05;;;;;;;;;;6302044;22;19999;-80
2024/01/17 00:31:35;;;;;;;17.63;7.72;;;;;;;;;;6300693;22;20002;-81
2024/01/17 00:34:20;;;;;;;19.52;8.40;;;;;;;;;;6303523;22;19995;-81
2024/01/17 00:37:05;;;;;;;20.48;9.40;;;;;;;;;;6296775;22;20070;-81
2024/01/17 00:39:51;;;;;;;18.90;8.50;;;;;;;;;;6300404;22;20002;-81
2024/01/17 00:42:36;;;;;;;15.90;7.75;;;;;;;;;;6298786;22;20005;-81
2024/01/17 00:45:21;;;;;;;17.30;6.93;;;;;;;;;;6300980;22;19999;-80
2024/01/17 00:48:07;;;;;;;17.63;8.68;;;;;;;;;;6300455;22;19994;-80
2024/01/17 00:50:52;;;;;;;18.58;8.75;;;;;;;;;;6302487;22;20671;-80
2024/01/17 00:53:38;;;;;;;16.90;8.55;;;;;;;;;;6300917;22;20006;-81
2024/01/17 00:56:23;;;;;;;21.63;9.02;;;;;;;;;;6299740;22;20030;-79
2024/01/17 00:59:09;;;;;;;18.50;8.35;;;;;;;;;;6303211;22;20068;-81
2024/01/17 01:01:54;;;;;;;14.15;7.97;;;;;;;;;;6302656;22;19998;-82
2024/01/17 01:04:39;;;;;;;17.05;7.93;;;;;;;;;;6299831;22;20003;-81
2024/01/17 01:07:24;;;;;;;14.98;7.63;;;;;;;;;;6301313;22;19995;-81
2024/01/17 01:10:10;;;;;;;20.40;8.45;;;;;;;;;;6298448;22;19995;-82
2024/01/17 01:12:55;;;;;;;16.55;7.40;;;;;;;;;;6296274;22;20007;-83
2024/01/17 01:15:40;;;;;;;17.23;7.65;;;;;;;;;;6294621;22;19995;-82
2024/01/17 01:18:25;;;;;;;18.15;8.00;;;;;;;;;;6296154;22;20081;-81
2024/01/17 01:21:10;;;;;;;14.70;7.63;;;;;;;;;;6297190;22;20033;-82
2024/01/17 01:23:56;;;;;;;18.70;8.60;;;;;;;;;;6297840;22;20002;-83
2024/01/17 01:26:41;;;;;;;14.48;7.32;;;;;;;;;;6296361;22;20003;-81
2024/01/17 01:29:26;;;;;;;16.30;7.07;;;;;;;;;;6297997;22;20052;-81
2024/01/17 01:32:11;;;;;;;15.52;7.28;;;;;;;;;;6279091;22;20051;-82
2024/01/17 01:34:57;;;;;;;19.65;7.43;;;;;;;;;;6301201;22;20327;-81
2024/01/17 01:37:42;;;;;;;15.57;7.28;;;;;;;;;;6300819;22;20452;-81
2024/01/17 01:40:27;;;;;;;17.13;8.95;;;;;;;;;;6300086;22;20623;-80
2024/01/17 01:43:16;;;;;;;19.35;8.73;;;;;;;;;;6302455;22;20343;-80
2024/01/17 01:46:16;;;;;;;17.33;8.43;;;;;;;;;;6303158;22;20391;-81
2024/01/17 01:49:02;;;;;;;18.92;9.63;;;;;;;;;;6302928;22;20006;-81
2024/01/17 01:51:48;;;;;;;15.75;8.35;;;;;;;;;;6299574;22;20055;-81
2024/01/17 01:54:34;;;;;;;13.02;7.28;;;;;;;;;;6298484;22;19999;-80
2024/01/17 01:57:20;;;;;;;13.95;7.55;;;;;;;;;;6298389;22;20439;-81
2024/01/17 02:00:06;;;;;;;13.48;6.32;;;;;;;;;;6296707;22;20304;-80
2024/01/17 02:02:51;;;;;;;14.88;7.88;;;;;;;;;;6297863;22;20003;-80
2024/01/17 02:05:37;;;;;;;15.60;7.10;;;;;;;;;;6296556;22;20051;-80
2024/01/17 02:08:22;;;;;;;18.77;8.15;;;;;;;;;;6298683;22;20005;-82
2024/01/17 02:11:08;;;;;;;12.70;7.07;;;;;;;;;;6279485;22;19995;-82
2024/01/17 02:13:53;;;;;;;17.65;7.70;;;;;;;;;;6303052;22;20503;-80
2024/01/17 02:16:39;;;;;;;17.42;7.65;;;;;;;;;;6301840;22;20094;-79
2024/01/17 02:19:26;;;;;;;15.90;7.75;;;;;;;;;;6300460;22;20006;-83
2024/01/17 02:22:11;;;;;;;14.85;7.03;;;;;;;;;;6302828;22;20007;-82
2024/01/17 02:24:56;;;;;;;13.23;6.70;;;;;;;;;;6303106;22;20089;-83
2024/01/17 02:27:41;;;;;;;15.40;7.18;;;;;;;;;;6302020;22;20043;-82
2024/01/17 02:30:27;;;;;;;12.65;6.85;;;;;;;;;;6302281;22;19987;-82
2024/01/17 02:33:12;;;;;;;15.52;6.78;;;;;;;;;;6304876;22;20003;-81
2024/01/17 02:35:58;;;;;;;15.45;6.68;;;;;;;;;;6301789;22;20402;-82
2024/01/17 02:38:43;;;;;;;10.88;5.80;;;;;;;;;;6293656;22;20010;-82
2024/01/17 02:41:28;;;;;;;18.33;7.07;;;;;;;;;;6297565;22;20331;-81
2024/01/17 02:44:13;;;;;;;12.45;6.63;;;;;;;;;;6299965;22;20042;-82
2024/01/17 02:46:58;;;;;;;15.18;7.32;;;;;;;;;;6298112;22;19998;-81
2024/01/17 02:49:44;;;;;;;11.98;6.57;;;;;;;;;;6297921;22;20001;-82
2024/01/17 02:52:29;;;;;;;13.65;6.82;;;;;;;;;;6303249;22;20754;-81
2024/01/17 02:55:17;;;;;;;11.88;6.57;;;;;;;;;;6301425;22;20006;-82
2024/01/17 02:58:02;;;;;;;18.33;8.73;;;;;;;;;;6303091;22;20052;-82
2024/01/17 03:00:48;;;;;;;16.35;8.60;;;;;;;;;;6305151;22;20073;-81
2024/01/17 03:03:33;;;;;;;16.15;8.32;;;;;;;;;;6303241;22;20009;-81
2024/01/17 03:06:18;;;;;;;14.90;7.85;;;;;;;;;;6307707;22;19995;-81
2024/01/17 03:09:04;;;;;;;16.00;8.07;;;;;;;;;;6307969;22;20026;-82
2024/01/17 03:11:49;;;;;;;15.13;8.57;;;;;;;;;;6307757;22;20474;-80
2024/01/17 03:14:35;;;;;;;15.25;7.50;;;;;;;;;;6305812;22;20011;-81
2024/01/17 03:17:20;;;;;;;19.15;8.48;;;;;;;;;;6307728;22;20458;-81
2024/01/17 03:20:06;;;;;;;21.95;9.27;;;;;;;;;;6301320;22;20461;-81
2024/01/17 03:22:53;;;;;;;16.95;8.60;;;;;;;;;;6303563;22;20007;-82
2024/01/17 03:25:38;;;;;;;19.05;8.63;;;;;;;;;;6303631;22;20003;-83
2024/01/17 03:28:23;;;;;;;17.77;8.63;;;;;;;;;;6305024;22;20039;-82
2024/01/17 03:31:08;;;;;;;16.50;8.77;;;;;;;;;;6307981;22;19999;-81
2024/01/17 03:33:53;;;;;;;19.77;9.55;;;;;;;;;;6307447;22;20078;-83
2024/01/17 03:36:39;;;;;;;15.52;9.38;;;;;;;;;;6300441;22;20010;-83
2024/01/17 03:39:24;;;;;;;17.83;9.63;;;;;;;;;;6305591;22;20030;-83
2024/01/17 03:42:15;;;;;;;16.98;8.65;;;;;;;;;;6284140;22;19998;-84
2024/01/17 03:45:00;;;;;;;17.05;9.57;;;;;;;;;;6308769;22;20006;-83
2024/01/17 03:47:45;;;;;;;18.30;9.88;;;;;;;;;;6300963;22;19998;-83
2024/01/17 03:50:31;;;;;;;15.65;8.60;;;;;;;;;;6301056;22;20096;-83
2024/01/17 03:53:16;;;;;;;16.75;8.65;;;;;;;;;;6301581;22;20136;-83
2024/01/17 03:56:02;;;;;;;16.77;9.80;;;;;;;;;;6305807;22;20002;-83
2024/01/17 03:58:47;;;;;;;18.60;9.55;;;;;;;;;;6307273;22;20377;-81
2024/01/17 04:01:32;;;;;;;17.08;9.13;;;;;;;;;;6305259;22;20006;-83
2024/01/17 04:04:17;;;;;;;17.02;8.52;;;;;;;;;;6304347;22;20009;-83
2024/01/17 04:07:03;;;;;;;14.75;8.90;;;;;;;;;;6304415;22;20457;-82
2024/01/17 04:09:48;;;;;;;13.63;8.18;;;;;;;;;;6300417;22;19995;-82
2024/01/17 04:12:33;;;;;;;19.05;9.15;;;;;;;;;;6300922;22;20021;-82
2024/01/17 04:15:18;;;;;;;18.00;9.68;;;;;;;;;;6303051;22;20494;-82
2024/01/17 04:18:04;;;;;;;16.75;9.30;;;;;;;;;;6303159;22;20312;-80
2024/01/17 04:20:49;;;;;;;19.75;9.80;;;;;;;;;;6300848;22;20005;-80
2024/01/17 04:23:35;;;;;;;16.73;7.82;;;;;;;;;;6296985;22;20026;-81
2024/01/17 04:26:23;;;;;;;19.15;9.00;;;;;;;;;;6301624;22;20772;-81
2024/01/17 04:29:08;;;;;;;16.02;9.07;;;;;;;;;;6296001;22;20010;-81
2024/01/17 04:31:53;;;;;;;21.00;11.18;;;;;;;;;;6297671;22;20049;-81
2024/01/17 04:34:38;;;;;;;18.77;10.70;;;;;;;;;;6297391;22;20384;-82
2024/01/17 04:37:24;;;;;;;16.95;9.60;;;;;;;;;;6301399;22;19994;-80
2024/01/17 04:40:09;;;;;;;17.65;9.57;;;;;;;;;;6303290;22;20168;-82
2024/01/17 04:42:54;;;;;;;16.75;9.05;;;;;;;;;;6302430;22;19994;-83
2024/01/17 04:45:39;;;;;;;18.55;10.15;;;;;;;;;;6301057;22;20005;-80
2024/01/17 04:48:24;;;;;;;18.40;9.85;;;;;;;;;;6300046;22;20426;-82
2024/01/17 04:51:10;;;;;;;16.60;9.90;;;;;;;;;;6303461;22;19998;-82
2024/01/17 04:53:55;;;;;;;18.52;10.35;;;;;;;;;;6303266;22;19998;-81
2024/01/17 04:56:41;;;;;;;17.27;9.93;;;;;;;;;;6301043;22;20109;-82
2024/01/17 04:59:26;;;;;;;18.45;9.20;;;;;;;;;;6298117;22;20116;-83
2024/01/17 05:02:12;;;;;;;18.85;9.52;;;;;;;;;;6296274;22;20089;-83
2024/01/17 05:04:57;;;;;;;16.05;9.38;;;;;;;;;;6297493;22;20352;-83
2024/01/17 05:07:43;;;;;;;22.23;11.77;;;;;;;;;;6301081;22;20041;-84
2024/01/17 05:10:28;;;;;;;18.63;9.98;;;;;;;;;;6300075;22;20026;-84
2024/01/17 05:13:14;;;;;;;18.48;11.20;;;;;;;;;;6302296;22;20018;-82
2024/01/17 05:15:59;;;;;;;16.85;10.05;;;;;;;;;;6301613;22;19995;-83
2024/01/17 05:18:44;;;;;;;21.45;10.27;;;;;;;;;;6301479;22;20009;-83
2024/01/17 05:21:29;;;;;;;20.40;11.57;;;;;;;;;;6322590;22;20474;-83
2024/01/17 05:24:14;;;;;;;18.23;10.50;;;;;;;;;;6300261;22;20010;-82
2024/01/17 05:27:00;;;;;;;22.77;11.05;;;;;;;;;;6296152;22;20002;-84
2024/01/17 05:29:45;;;;;;;16.25;8.93;;;;;;;;;;6295257;22;20078;-81
2024/01/17 05:32:30;;;;;;;18.50;10.07;;;;;;;;;;6295895;22;19995;-81
2024/01/17 05:35:16;;;;;;;17.63;10.95;;;;;;;;;;6296845;22;20006;-81
2024/01/17 05:38:01;;;;;;;17.73;10.10;;;;;;;;;;6303738;22;19990;-82
2024/01/17 05:40:46;;;;;;;18.00;10.88;;;;;;;;;;6301996;22;19998;-79
2024/01/17 05:43:31;;;;;;;19.77;10.95;;;;;;;;;;6300950;22;20444;-80
2024/01/17 05:46:16;;;;;;;20.98;11.07;;;;;;;;;;6301973;22;19991;-81
2024/01/17 05:49:02;;;;;;;21.20;11.80;;;;;;;;;;6302672;22;20001;-80
2024/01/17 05:51:47;;;;;;;17.33;9.50;;;;;;;;;;6302556;22;19995;-82
2024/01/17 05:54:33;;;;;;;16.67;9.45;;;;;;;;;;6301078;22;20006;-82
2024/01/17 05:57:18;;;;;;;25.85;12.63;;;;;;;;;;6304342;22;20083;-85
2024/01/17 06:00:04;;;;;;;18.98;9.50;;;;;;;;;;6304537;22;20392;-85
2024/01/17 06:02:49;;;;;;;18.67;10.98;;;;;;;;;;6301425;22;19995;-83
2024/01/17 06:05:35;;;;;;;19.95;10.88;;;;;;;;;;6278042;22;20010;-85
2024/01/17 06:08:21;;;;;;;20.73;10.02;;;;;;;;;;6298431;22;19999;-84
2024/01/17 06:11:06;;;;;;;21.50;11.32;;;;;;;;;;6303769;22;20065;-84
2024/01/17 06:13:53;;;;;;;21.20;10.13;;;;;;;;;;6305852;22;20007;-85
2024/01/17 06:16:38;;;;;;;20.95;11.40;;;;;;;;;;6304817;22;20002;-84
2024/01/17 06:19:23;;;;;;;23.55;12.20;;;;;;;;;;6302830;22;20037;-85
2024/01/17 06:22:09;;;;;;;19.73;10.95;;;;;;;;;;6302697;22;20022;-85
2024/01/17 06:24:54;;;;;;;23.52;11.65;;;;;;;;;;6303643;22;20299;-80
2024/01/17 06:27:39;;;;;;;24.40;11.52;;;;;;;;;;6302607;22;19995;-83
2024/01/17 06:30:24;;;;;;;20.52;11.05;;;;;;;;;;6301473;22;19995;-82
2024/01/17 06:33:10;;;;;;;21.15;10.35;;;;;;;;;;6297290;22;20557;-82
2024/01/17 06:39:10;;;;;;;24.90;11.93;;;;;;;;;;6295550;22;20785;-84
2024/01/17 06:41:56;;;;;;;21.40;11.38;;;;;;;;;;6303850;22;19994;-80
2024/01/17 06:44:42;;;;;;;22.52;12.20;;;;;;;;;;6303189;22;20006;-84
2024/01/17 06:47:28;;;;;;;26.67;11.82;;;;;;;;;;6301429;22;20427;-82
2024/01/17 06:50:14;;;;;;;30.60;11.20;;;;;;;;;;6304917;22;19999;-82
2024/01/17 06:52:59;;;;;;;21.98;11.80;;;;;;;;;;6305097;22;20128;-82
2024/01/17 06:55:44;;;;;;;29.13;12.57;;;;;;;;;;6303284;22;19995;-81
2024/01/17 06:58:29;;;;;;;24.25;11.70;;;;;;;;;;6302167;22;20002;-81
2024/01/17 07:01:15;;;;;;;22.08;11.07;;;;;;;;;;6286204;22;20002;-81
2024/01/17 07:04:00;;;;;;;21.63;11.18;;;;;;;;;;6303903;22;20002;-80
2024/01/17 07:06:48;;;;;;;27.08;12.82;;;;;;;;;;6320652;22;20001;-83
2024/01/17 07:09:34;;;;;;;19.17;10.23;;;;;;;;;;6324015;22;20383;-84
2024/01/17 07:12:19;;;;;;;22.83;11.55;;;;;;;;;;6313759;22;20063;-84
2024/01/17 07:15:03;;;;;;;28.90;13.63;;;;;;;;;;6356031;22;20001;-83
2024/01/17 07:17:47;;;;;;;20.27;11.57;;;;;;;;;;6358163;22;20018;-84
2024/01/17 07:20:32;;;;;;;22.42;11.82;;;;;;;;;;6340754;22;20011;-83
2024/01/17 07:23:18;;;;;;;22.83;11.73;;;;;;;;;;6303029;22;20089;-83
2024/01/17 07:26:04;;;;;;;25.10;12.50;;;;;;;;;;6303606;22;20395;-83
2024/01/17 07:28:49;;;;;;;23.60;11.85;;;;;;;;;;6304839;22;20102;-83
2024/01/17 07:31:34;;;;;;;30.65;13.00;;;;;;;;;;6301543;22;20006;-82
2024/01/17 07:34:19;;;;;;;24.17;11.52;;;;;;;;;;6304155;22;20319;-83
2024/01/17 07:37:05;;;;;;;26.17;14.18;;;;;;;;;;6302964;22;19995;-82
2024/01/17 07:39:50;;;;;;;21.23;11.52;;;;;;;;;;6301180;22;19999;-82
2024/01/17 07:42:37;;;;;;;23.23;12.85;;;;;;;;;;6304843;22;19991;-82
2024/01/17 07:45:26;;;;;;;25.42;13.70;;;;;;;;;;6299635;22;20443;-83
2024/01/17 07:48:11;;;;;;;35.40;14.00;;;;;;;;;;6276944;22;19990;-82
2024/01/17 07:50:57;;;;;;;21.98;11.90;;;;;;;;;;6303822;22;20069;-82
2024/01/17 07:53:42;;;;;;;28.38;14.43;;;;;;;;;;6303994;22;20324;-82
2024/01/17 07:56:28;;;;;;;31.98;14.02;;;;;;;;;;6300668;22;19995;-82
2024/01/17 07:59:13;;;;;;;26.38;12.60;;;;;;;;;;6303116;22;19998;-82
2024/01/17 08:01:58;;;;;;;24.80;13.57;;;;;;;;;;6303343;22;19995;-82
2024/01/17 08:04:44;;;;;;;25.65;14.02;;;;;;;;;;6299670;22;20146;-81
2024/01/17 08:07:29;;;;;;;28.88;13.95;;;;;;;;;;6280091;22;19991;-82
2024/01/17 08:10:14;;;;;;;24.63;14.68;;;;;;;;;;6303345;22;19999;-81
2024/01/17 08:12:59;;;;;;;25.88;13.57;;;;;;;;;;6302793;22;20017;-81
2024/01/17 08:15:45;;;;;;;28.70;14.18;;;;;;;;;;6300650;22;20030;-81
2024/01/17 08:18:30;;;;;;;26.27;15.38;;;;;;;;;;6300826;22;20327;-82
2024/01/17 08:21:15;;;;;;;25.15;14.20;;;;;;;;;;6299176;22;20493;-81
2024/01/17 08:24:00;;;;;;;33.63;14.93;;;;;;;;;;6296039;22;20090;-82
2024/01/17 08:26:48;;;;;;;27.23;13.88;;;;;;;;;;6296918;22;20006;-84
2024/01/17 08:29:33;;;;;;;23.55;12.05;;;;;;;;;;6297390;22;20096;-83
2024/01/17 08:32:19;;;;;;;25.63;14.30;;;;;;;;;;6299047;22;20002;-83
2024/01/17 08:35:04;;;;;;;25.50;14.80;;;;;;;;;;6302733;22;20034;-83
2024/01/17 08:37:49;;;;;;;26.65;14.88;;;;;;;;;;6302821;22;20003;-83
2024/01/17 08:40:36;;;;;;;22.67;14.45;;;;;;;;;;6300629;22;20079;-82
2024/01/17 08:43:21;;;;;;;22.13;13.00;;;;;;;;;;6300160;22;20130;-81
2024/01/17 08:46:07;;;;;;;30.92;14.57;;;;;;;;;;6302803;22;20038;-83
2024/01/17 08:48:53;;;;;;;23.95;13.85;;;;;;;;;;6303331;22;20076;-83
2024/01/17 08:51:38;;;;;;;30.05;16.33;;;;;;;;;;6300778;22;19999;-83
2024/01/17 08:54:23;;;;;;;22.63;13.32;;;;;;;;;;6303096;22;20022;-83
2024/01/17 08:57:11;;;;;;;28.38;14.93;;;;;;;;;;6303976;22;20330;-83
2024/01/17 08:59:59;;;;;;;23.08;13.60;;;;;;;;;;6303541;22;20074;-82
2024/01/17 09:02:45;;;;;;;24.45;13.35;;;;;;;;;;6298324;22;20368;-83
2024/01/17 09:05:30;;;;;;;30.00;13.90;;;;;;;;;;6296365;22;20003;-82
2024/01/17 09:08:16;;;;;;;27.00;12.30;;;;;;;;;;6296219;22;20417;-83
2024/01/17 09:11:02;;;;;;;22.67;12.85;;;;;;;;;;6295424;22;20029;-82
2024/01/17 09:13:48;;;;;;;21.48;12.95;;;;;;;;;;6296293;22;20090;-82
2024/01/17 09:16:33;;;;;;;27.83;14.40;;;;;;;;;;6300742;22;19999;-82
2024/01/17 09:19:20;;;;;;;27.80;14.85;;;;;;;;;;6300457;22;20304;-82
2024/01/17 09:22:07;;;;;;;28.73;12.40;;;;;;;;;;6302648;22;20428;-82
2024/01/17 09:24:52;;;;;;;25.85;14.38;;;;;;;;;;6302320;22;20011;-82
2024/01/17 09:27:37;;;;;;;24.08;13.43;;;;;;;;;;6300480;22;20002;-82
2024/01/17 09:30:23;;;;;;;27.35;13.70;;;;;;;;;;6302515;22;20040;-82
2024/01/17 09:33:08;;;;;;;27.40;14.00;;;;;;;;;;6302861;22;20069;-82
2024/01/17 09:35:53;;;;;;;24.17;13.98;;;;;;;;;;6302513;22;20020;-85
2024/01/17 09:38:39;;;;;;;26.58;13.52;;;;;;;;;;6301060;22;20003;-83
2024/01/17 09:41:24;;;;;;;24.70;14.30;;;;;;;;;;6300154;22;20002;-81
2024/01/17 09:44:10;;;;;;;23.40;12.73;;;;;;;;;;6303299;22;20428;-84
2024/01/17 09:47:00;;;;;;;22.42;12.73;;;;;;;;;;6298762;22;20029;-83
2024/01/17 09:49:45;;;;;;;;;;;;;;;;;;6296320;22;19995;-85
2024/01/17 09:52:32;;;;;;;23.48;13.20;;;;;;;;;;6295741;22;19981;-84
2024/01/17 09:55:19;;;;;;;27.17;13.35;;;;;;;;;;6284841;22;20003;-85
2024/01/17 09:58:05;;;;;;;23.60;12.63;;;;;;;;;;6295802;22;19999;-83
2024/01/17 10:00:51;;;;;;;19.98;11.68;;;;;;;;;;6302517;22;20218;-83
2024/01/17 10:03:40;;;;;;;22.30;12.88;;;;;;;;;;6303334;22;19998;-84
2024/01/17 10:06:27;;;;;;;24.52;12.77;;;;;;;;;;6300913;22;20423;-84
2024/01/17 10:09:14;;;;;;;21.58;12.27;;;;;;;;;;6302089;22;20030;-84
2024/01/17 10:11:59;;;;;;;22.42;11.80;;;;;;;;;;6302460;22;20022;-83
2024/01/17 10:14:45;;;;;;;26.70;12.05;;;;;;;;;;6300317;22;20370;-83
2024/01/17 10:17:30;;;;;;;26.70;13.05;;;;;;;;;;6300324;22;19999;-83
2024/01/17 10:20:16;;;;;;;23.45;13.13;;;;;;;;;;6302336;22;20078;-82
2024/01/17 10:23:03;;;;;;;26.00;13.38;;;;;;;;;;6302591;22;20078;-83
2024/01/17 10:25:48;;;;;;;31.13;14.68;;;;;;;;;;6300600;22;20003;-84
2024/01/17 10:28:33;;;;;;;24.50;12.55;;;;;;;;;;6279529;22;20312;-83
2024/01/17 10:31:22;;;;;;;23.83;12.98;;;;;;;;;;6300990;22;20006;-83
2024/01/17 10:34:07;;;;;;;23.50;11.18;;;;;;;;;;6296707;22;20515;-83
2024/01/17 10:36:53;;;;;;;21.02;13.27;;;;;;;;;;6298647;22;20049;-83
2024/01/17 10:39:38;;;;;;;25.50;12.38;;;;;;;;;;6296360;22;19994;-83
2024/01/17 10:42:25;;;;;;;24.48;11.07;;;;;;;;;;6295857;22;19998;-83
2024/01/17 10:45:20;;;;;;;19.83;11.43;;;;;;;;;;6297790;22;20030;-83
2024/01/17 10:48:09;;;;;;;24.98;11.93;;;;;;;;;;6303524;22;19998;-83
2024/01/17 10:51:01;;;;;;;20.25;10.93;;;;;;;;;;6304192;22;20002;-82
2024/01/17 10:53:48;;;;;;;22.70;11.25;;;;;;;;;;6304662;22;19994;-82
2024/01/17 10:56:36;;;;;;;21.77;12.82;;;;;;;;;;6302875;22;20026;-82
2024/01/17 10:59:21;;;;;;;27.23;12.20;;;;;;;;;;6304857;22;19995;-84
2024/01/17 11:02:10;;;;;;;19.77;10.90;;;;;;;;;;6302807;22;20003;-84
2024/01/17 11:04:58;;;;;;;21.90;11.50;;;;;;;;;;6283285;22;20003;-85
2024/01/17 11:07:44;;;;;;;24.08;11.25;;;;;;;;;;6304012;22;20466;-82
2024/01/17 11:10:29;;;;;;;21.98;11.48;;;;;;;;;;6297939;22;20001;-84
2024/01/17 11:13:16;;;;;;;16.77;9.85;;;;;;;;;;6303662;22;20068;-83
2024/01/17 11:16:03;;;;;;;24.48;11.82;;;;;;;;;;6298758;22;20064;-83
2024/01/17 11:18:49;;;;;;;24.02;11.82;;;;;;;;;;6298631;22;20005;-83
2024/01/17 11:21:35;;;;;;;18.73;10.75;;;;;;;;;;6298252;22;20379;-83
2024/01/17 11:24:27;;;;;;;21.52;11.05;;;;;;;;;;6300737;22;20007;-84
2024/01/17 11:27:20;;;;;;;22.25;11.80;;;;;;;;;;6298183;22;20041;-85
2024/01/17 11:30:06;;;;;;;21.83;12.10;;;;;;;;;;6297364;22;19995;-83
2024/01/17 11:33:02;;;;;;;23.77;12.48;;;;;;;;;;6300298;22;20030;-83
2024/01/17 11:35:49;;;;;;;20.35;11.25;;;;;;;;;;6304417;22;20034;-83
2024/01/17 11:38:34;;;;;;;26.42;13.60;;;;;;;;;;6302412;22;20046;-83
2024/01/17 11:41:19;;;;;;;18.77;10.90;;;;;;;;;;6302484;22;20083;-84
2024/01/17 11:44:05;;;;;;;16.65;10.93;;;;;;;;;;6303519;22;20035;-83
2024/01/17 11:46:53;;;;;;;27.35;13.07;;;;;;;;;;6303894;22;20047;-83
2024/01/17 11:49:40;;;;;;;20.05;11.23;;;;;;;;;;6302603;22;19999;-83
2024/01/17 11:52:28;;;;;;;18.48;10.60;;;;;;;;;;6300887;22;19998;-84
2024/01/17 11:55:15;;;;;;;23.50;12.15;;;;;;;;;;6305066;22;20002;-82
2024/01/17 11:58:00;;;;;;;23.33;11.00;;;;;;;;;;6304114;22;20029;-83
2024/01/17 12:00:45;;;;;;;18.95;10.13;;;;;;;;;;6301880;22;20013;-82
2024/01/17 12:03:31;;;;;;;22.05;10.07;;;;;;;;;;6302911;22;19995;-83
2024/01/17 12:06:17;;;;;;;19.23;9.90;;;;;;;;;;6301060;22;20006;-84
2024/01/17 12:09:03;;;;;;;18.48;10.73;;;;;;;;;;6298558;22;20011;-86
2024/01/17 12:11:48;;;;;;;22.40;10.98;;;;;;;;;;6299892;22;20007;-85
2024/01/17 12:14:35;;;;;;;21.38;10.50;;;;;;;;;;6297778;22;19995;-84
2024/01/17 12:17:21;;;;;;;29.73;12.23;;;;;;;;;;6297068;22;19994;-83
2024/01/17 12:20:07;;;;;;;17.38;9.80;;;;;;;;;;6303413;22;20037;-83
2024/01/17 12:22:53;;;;;;;16.48;8.70;;;;;;;;;;6303031;22;20014;-85
2024/01/17 12:25:39;;;;;;;20.60;8.82;;;;;;;;;;6282269;22;20033;-85
2024/01/17 12:28:24;;;;;;;19.05;10.00;;;;;;;;;;6303548;22;20014;-83
2024/01/17 12:31:10;;;;;;;14.27;7.72;;;;;;;;;;6303262;22;20010;-85
2024/01/17 12:33:58;;;;;;;11.73;6.63;;;;;;;;;;6304038;22;20013;-85
2024/01/17 12:36:43;;;;;;;12.77;6.63;;;;;;;;;;6300877;22;20792;-83
2024/01/17 12:39:29;;;;;;;11.07;6.18;;;;;;;;;;6301806;22;20434;-83
2024/01/17 12:42:16;;;;;;;15.68;6.72;;;;;;;;;;6303574;22;20327;-83
2024/01/17 12:45:02;;;;;;;11.45;5.18;;;;;;;;;;6303305;22;20047;-83
2024/01/17 12:47:47;;;;;;;9.80;5.45;;;;;;;;;;6300835;22;20001;-85
2024/01/17 12:50:33;;;;;;;10.73;5.60;;;;;;;;;;6297314;22;20005;-84
2024/01/17 12:53:18;;;;;;;9.57;5.28;;;;;;;;;;6299867;22;19999;-84
2024/01/17 12:56:05;;;;;;;11.05;5.40;;;;;;;;;;6275500;22;19995;-84
2024/01/17 12:58:50;;;;;;;9.05;5.03;;;;;;;;;;6297670;22;20034;-84
2024/01/17 13:01:42;;;;;;;8.48;4.68;;;;;;;;;;6296491;22;20007;-84
2024/01/17 13:04:28;;;;;;;8.65;4.97;;;;;;;;;;6296912;22;20006;-84
2024/01/17 13:07:23;;;;;;;8.60;3.90;;;;;;;;;;6298826;22;19995;-83
2024/01/17 13:10:15;;;;;;;8.00;3.80;;;;;;;;;;6298692;22;20008;-83
2024/01/17 13:13:02;;;;;;;5.70;3.05;;;;;;;;;;6278890;22;20021;-83
2024/01/17 13:15:47;;;;;;;5.65;3.83;;;;;;;;;;6267722;22;20328;-83
2024/01/17 13:18:36;;;;;;;9.05;4.82;;;;;;;;;;6269411;22;20435;-84
2024/01/17 13:21:24;;;;;;;12.02;6.05;;;;;;;;;;6272467;22;20199;-82
2024/01/17 13:24:10;;;;;;;9.82;5.25;;;;;;;;;;6271781;22;20003;-81
2024/01/17 13:26:55;;;;;;;10.15;4.63;;;;;;;;;;6271463;22;20003;-83
2024/01/17 13:29:41;;;;;;;7.80;3.95;;;;;;;;;;6270257;22;20074;-84
2024/01/17 13:32:26;;;;;;;9.38;4.47;;;;;;;;;;6268938;22;20531;-85
2024/01/17 13:35:11;;;;;;;7.40;3.67;;;;;;;;;;6271764;22;19999;-82
2024/01/17 13:37:56;;;;;;;7.97;3.63;;;;;;;;;;6265724;22;20007;-83
2024/01/17 13:40:41;;;;;;;7.80;3.42;;;;;;;;;;6265970;22;20381;-82
2024/01/17 13:43:27;;;;;;;9.00;3.58;;;;;;;;;;6265721;22;20313;-83
2024/01/17 13:46:12;;;;;;;7.82;3.78;;;;;;;;;;6267100;22;20010;-83
2024/01/17 13:48:57;;;;;;;6.63;3.65;;;;;;;;;;6265863;22;20025;-84
2024/01/17 13:51:44;;;;;;;6.95;3.67;;;;;;;;;;6265897;22;20098;-83
2024/01/17 13:54:30;;;;;;;6.97;2.75;;;;;;;;;;6265330;22;19995;-83
2024/01/17 13:57:15;;;;;;;5.85;2.92;;;;;;;;;;6265115;22;19999;-83
2024/01/17 14:00:00;;;;;;;5.43;3.05;;;;;;;;;;6267448;22;19995;-84
2024/01/17 14:02:46;;;;;;;6.80;3.35;;;;;;;;;;6272491;22;20148;-83
2024/01/17 14:05:31;;;;;;;7.43;2.63;;;;;;;;;;6269599;22;20060;-83
2024/01/17 14:08:16;;;;;;;4.90;2.58;;;;;;;;;;6271446;22;19999;-83
2024/01/17 14:11:03;;;;;;;5.32;2.65;;;;;;;;;;6250507;22;20225;-83
2024/01/17 14:13:48;;;;;;;6.20;3.13;;;;;;;;;;6271353;22;20436;-83
2024/01/17 14:16:33;;;;;;;5.13;2.78;;;;;;;;;;6270301;22;20401;-83
2024/01/17 14:19:19;;;;;;;8.02;3.05;;;;;;;;;;6271973;22;20331;-82
2024/01/17 14:22:04;;;;;;;4.90;2.63;;;;;;;;;;6272541;22;20519;-82
2024/01/17 14:24:50;;;;;;;6.15;3.00;;;;;;;;;;6269229;22;20386;-82
2024/01/17 14:27:35;;;;;;;7.43;3.03;;;;;;;;;;6287791;22;20043;-83
2024/01/17 14:30:23;;;;;;;8.27;3.60;;;;;;;;;;6281272;22;19991;-83
2024/01/17 14:33:08;;;;;;;7.80;4.20;;;;;;;;;;6266726;22;20443;-84
2024/01/17 14:35:54;;;;;;;8.52;3.75;;;;;;;;;;6271611;22;19999;-82
2024/01/17 14:38:39;;;;;;;7.00;3.75;;;;;;;;;;6274462;22;20014;-82
2024/01/17 14:41:24;;;;;;;11.85;4.15;;;;;;;;;;6271476;22;20128;-81
2024/01/17 14:44:10;;;;;;;10.95;4.10;;;;;;;;;;6273261;22;19995;-85
2024/01/17 14:46:55;;;;;;;6.47;3.78;;;;;;;;;;6274228;22;20115;-82
2024/01/17 14:49:40;;;;;;;8.02;3.55;;;;;;;;;;6271370;22;19995;-82
2024/01/17 14:52:26;;;;;;;8.45;3.75;;;;;;;;;;6271123;22;20006;-83
2024/01/17 14:55:11;;;;;;;9.25;3.70;;;;;;;;;;6273224;22;19996;-82
2024/01/17 14:57:56;;;;;;;5.57;2.88;;;;;;;;;;6273435;22;20003;-84
2024/01/17 15:00:42;;;;;;;4.85;3.10;;;;;;;;;;6272320;22;20002;-83
2024/01/17 15:03:27;;;;;;;7.88;3.55;;;;;;;;;;6271295;22;20003;-84
2024/01/17 15:06:19;;;;;;;5.95;3.17;;;;;;;;;;6270261;22;20010;-84
2024/01/17 15:09:13;;;;;;;7.20;3.22;;;;;;;;;;6262234;22;20030;-84
2024/01/17 15:11:59;;;;;;;12.05;3.60;;;;;;;;;;6265925;22;20025;-81
2024/01/17 15:14:44;;;;;;;11.20;3.88;;;;;;;;;;6267161;22;20002;-82
2024/01/17 15:17:29;;;;;;;7.10;3.55;;;;;;;;;;6275174;22;20048;-83
2024/01/17 15:20:15;;;;;;;8.20;3.97;;;;;;;;;;6290843;22;20006;-83
2024/01/17 15:23:00;;;;;;;7.97;3.22;;;;;;;;;;6301222;22;20000;-86
2024/01/17 15:25:47;;;;;;;11.02;3.63;;;;;;;;;;6302408;22;19999;-86
2024/01/17 15:28:33;;;;;;;7.53;3.80;;;;;;;;;;6301176;22;19999;-86
2024/01/17 15:31:18;;;;;;;7.60;3.92;;;;;;;;;;6286734;22;20078;-85
2024/01/17 15:34:04;;;;;;;9.13;3.85;;;;;;;;;;6275935;22;20002;-84
2024/01/17 15:36:49;;;;;;;8.18;3.88;;;;;;;;;;6271819;22;20435;-80
2024/01/17 15:39:35;;;;;;;9.40;3.45;;;;;;;;;;6271218;22;19999;-78
2024/01/17 15:42:21;;;;;;;7.10;3.83;;;;;;;;;;6273019;22;19999;-79
2024/01/17 15:45:07;;;;;;;10.82;4.15;;;;;;;;;;6265572;22;20002;-80
2024/01/17 15:47:52;;;;;;;11.25;4.78;;;;;;;;;;6268547;22;20369;-82
2024/01/17 15:50:40;;;;;;;12.77;5.05;;;;;;;;;;6265988;22;19997;-81
2024/01/17 15:53:25;;;;;;;9.13;4.45;;;;;;;;;;6270894;22;20075;-77
2024/01/17 15:56:11;;;;;;;8.65;4.38;;;;;;;;;;6270738;22;19996;-80
2024/01/17 15:58:58;;;;;;;8.98;4.72;;;;;;;;;;6273105;22;20490;-80
2024/01/17 16:01:43;;;;;;;13.15;6.45;;;;;;;;;;6273105;22;20006;-79
2024/01/17 16:04:28;;;;;;;15.40;5.57;;;;;;;;;;6270131;22;19999;-79
2024/01/17 16:07:13;;;;;;;9.27;4.45;;;;;;;;;;6272115;22;20088;-80
2024/01/17 16:09:58;;;;;;;10.70;3.70;;;;;;;;;;6272867;22;20019;-80
2024/01/17 16:12:44;;;;;;;12.52;4.72;;;;;;;;;;6269801;22;20011;-80
2024/01/17 16:15:29;;;;;;;7.50;3.83;;;;;;;;;;6269818;22;20574;-78
2024/01/17 16:18:15;;;;;;;7.70;3.60;;;;;;;;;;6267549;22;20010;-78